Time;durP1;ratioP1;P1;durP2;ratioP2;P2;SDS_P1;SDS_P2;PMS_P1;PMS_P2;Temp;Humidity;BMP_temperature;BMP_pressure;BME280_temperature;BME280_humidity;BME280_pressure;Samples;Min_cycle;Max_cycle;Signal;HPM_P1;HPM_P2
2021/12/24 12:19:17;;;;;;;4.90;4.40;;;7.90;99.90;;;;;;2957338;24;21474;-95
2021/12/24 12:22:25;;;;;;;6.10;4.70;;;7.90;99.90;;;;;;4746114;29;20491;-95
2021/12/24 12:25:30;;;;;;;4.73;4.30;;;7.90;99.90;;;;;;4771565;29;21000;-96
2021/12/24 12:27:59;;;;;;;6.43;4.87;;;7.90;99.90;;;;;;4729751;29;20502;-95
2021/12/24 12:30:33;;;;;;;17.33;5.50;;;8.00;99.90;;;;;;4755858;29;20493;-95
2021/12/24 12:33:22;;;;;;;7.63;5.57;;;8.00;99.90;;;;;;4735796;29;20452;-95
2021/12/24 12:39:32;;;;;;;10.70;7.33;;;8.00;99.90;;;;;;4758710;29;20470;-94
2021/12/24 12:42:16;;;;;;;5.83;5.23;;;8.00;99.90;;;;;;4749004;29;20493;-96
2021/12/24 12:44:53;;;;;;;5.50;4.17;;;8.00;99.90;;;;;;4748781;29;20462;-96
2021/12/24 12:47:42;;;;;;;3.33;3.10;;;8.10;99.90;;;;;;4738251;29;20933;-96
2021/12/24 12:50:18;;;;;;;5.17;3.50;;;8.10;99.90;;;;;;4741991;29;20483;-96
2021/12/24 12:53:20;;;;;;;;;;;;;;;;;;;;;
2021/12/24 12:57:00;;;;;;;4.07;3.40;;;8.20;99.90;;;;;;4768529;29;20470;-96
2021/12/24 13:00:18;;;;;;;4.50;4.10;;;8.30;99.90;;;;;;4745970;29;20639;-95
2021/12/24 15:14:59;;;;;;;4.90;4.40;;;8.20;99.90;;;;;;4844986;24;20527;-96
2021/12/24 15:18:16;;;;;;;;;;;;;;;;;;;;;
2021/12/24 17:56:12;;;;;;;4.90;4.40;;;8.30;99.90;;;;;;1833349;24;20824;-92
2021/12/24 17:58:37;;;;;;;5.63;5.00;;;8.30;99.90;;;;;;4746300;29;21074;-94
2021/12/24 18:01:03;;;;;;;4.90;4.50;;;8.30;99.90;;;;;;4761366;29;20853;-93
2021/12/24 18:03:29;;;;;;;5.90;5.40;;;8.30;99.90;;;;;;4748503;29;20210;-91
2021/12/24 18:05:59;;;;;;;5.30;4.80;;;8.30;99.90;;;;;;4760158;29;20409;-94
2021/12/24 18:08:27;;;;;;;5.93;5.23;;;8.20;99.90;;;;;;4753744;29;20216;-96
2021/12/24 18:11:10;;;;;;;6.90;5.30;;;8.10;99.90;;;;;;4767918;29;20513;-96
2021/12/24 18:13:51;;;;;;;6.40;5.80;;;8.10;99.90;;;;;;4764074;29;20952;-95
2021/12/24 18:20:32;;;;;;;5.13;4.63;;;8.00;99.90;;;;;;4756221;29;20489;-96
2021/12/24 18:23:00;;;;;;;5.60;5.10;;;8.00;99.90;;;;;;4768330;29;20461;-94
2021/12/24 20:14:47;;;;;;;8.30;6.30;;;8.60;99.90;;;;;;4759940;29;20508;-92
2021/12/24 20:17:15;;;;;;;10.03;6.53;;;8.60;99.90;;;;;;4759488;29;20468;-94
2021/12/24 20:19:41;;;;;;;6.10;5.50;;;8.60;99.90;;;;;;4746070;29;20469;-93
2021/12/24 20:22:09;;;;;;;5.87;4.93;;;8.60;99.90;;;;;;4750319;29;20691;-93
2021/12/24 20:24:35;;;;;;;4.60;4.17;;;8.60;99.90;;;;;;4757431;29;20200;-93
2021/12/24 20:27:02;;;;;;;5.90;5.40;;;8.60;99.90;;;;;;4750946;29;20459;-92
2021/12/24 20:29:28;;;;;;;6.27;5.67;;;8.60;99.90;;;;;;4743418;29;20460;-92
2021/12/24 20:31:59;;;;;;;5.00;4.50;;;8.60;99.90;;;;;;4755414;29;20489;-92
2021/12/24 20:34:31;;;;;;;7.80;7.00;;;8.60;99.90;;;;;;4751589;29;20731;-93
2021/12/24 20:36:58;;;;;;;5.67;5.17;;;8.50;99.90;;;;;;4740348;29;20506;-93
2021/12/24 20:39:26;;;;;;;5.50;4.83;;;8.50;99.90;;;;;;4744092;29;20552;-95
2021/12/24 20:41:55;;;;;;;8.80;7.90;;;8.50;99.90;;;;;;4762486;29;20482;-93
2021/12/24 20:44:30;;;;;;;6.70;6.00;;;8.50;99.90;;;;;;4764355;29;20552;-94
2021/12/24 20:46:58;;;;;;;6.40;5.80;;;8.50;99.90;;;;;;4760123;29;20475;-93
2021/12/24 20:49:27;;;;;;;9.27;8.30;;;8.50;99.90;;;;;;4746788;29;20461;-94
2021/12/24 20:51:53;;;;;;;9.97;6.53;;;8.50;99.90;;;;;;4750440;29;20913;-93
2021/12/24 20:54:28;;;;;;;11.93;10.73;;;8.50;99.90;;;;;;4761275;29;20479;-94
2021/12/24 20:57:22;;;;;;;7.77;5.63;;;8.50;99.90;;;;;;4764662;29;20510;-96
2021/12/24 21:00:26;;;;;;;6.47;5.83;;;8.50;99.90;;;;;;4781101;29;20574;-96
2021/12/24 21:03:13;;;;;;;6.17;5.33;;;8.50;99.90;;;;;;4786684;29;20479;-96
2021/12/24 22:54:53;;;;;;;6.23;5.20;;;8.40;99.90;;;;;;1701533;24;21973;-92
2021/12/24 22:57:19;;;;;;;5.03;4.63;;;8.30;99.90;;;;;;4744337;29;20500;-95
2021/12/24 22:59:48;;;;;;;5.80;5.30;;;8.30;99.90;;;;;;4744514;29;20488;-92
2021/12/24 23:02:15;;;;;;;9.90;5.67;;;8.30;99.90;;;;;;4748474;29;20256;-94
2021/12/24 23:04:41;;;;;;;5.60;5.10;;;8.30;99.90;;;;;;4753453;29;20549;-95
2021/12/24 23:07:07;;;;;;;5.70;4.93;;;8.30;99.90;;;;;;4747619;29;20506;-94
2021/12/24 23:09:33;;;;;;;11.10;9.47;;;8.20;99.90;;;;;;4753863;29;20204;-94
2021/12/24 23:12:04;;;;;;;6.43;5.40;;;8.20;99.90;;;;;;4752209;29;20376;-96
2021/12/24 23:14:33;;;;;;;5.90;5.30;;;8.20;99.90;;;;;;4765986;29;20213;-94
2021/12/24 23:17:02;;;;;;;6.23;5.63;;;8.20;99.90;;;;;;4763138;29;20496;-93
2021/12/24 23:28:26;;;;;;;6.53;5.30;;;8.20;99.90;;;;;;4791438;24;20275;-96
2021/12/24 23:30:52;;;;;;;6.17;5.60;;;8.10;99.90;;;;;;4766734;29;20690;-95
2021/12/24 23:33:21;;;;;;;6.23;5.63;;;8.10;99.90;;;;;;4764896;29;20763;-96
2021/12/24 23:35:48;;;;;;;6.30;5.60;;;8.10;99.90;;;;;;4782015;29;20560;-96
2021/12/24 23:38:14;;;;;;;8.50;6.60;;;8.10;99.90;;;;;;4757112;29;20496;-95
2021/12/24 23:40:43;;;;;;;6.90;6.20;;;8.10;99.90;;;;;;4771028;29;20489;-96
2021/12/24 23:43:18;;;;;;;7.30;6.30;;;8.10;99.90;;;;;;4769030;29;20513;-96
2021/12/24 23:45:58;;;;;;;8.00;7.20;;;8.20;99.90;;;;;;4754556;29;20460;-95
2021/12/24 23:48:29;;;;;;;8.87;7.00;;;8.20;99.90;;;;;;4763060;29;20525;-95
2021/12/24 23:50:58;;;;;;;8.40;7.47;;;8.30;99.90;;;;;;4772350;29;20534;-96
2021/12/24 23:58:55;;;;;;;10.07;7.10;;;8.30;99.90;;;;;;4765474;29;20467;-95
